Baltimore, Maryland
Traffic Map
Current Weather Conditions
Baltimore, Maryland
Scattered Clouds
Scattered Clouds
88°
Feels Like: 90°
Wind Chill: 88° Ceiling: Unl
Heat Index: 90° Visibility: 7mi
Dew Point: 66° Wind: 12mph
Humidity: 48% Direction: 100° (E)
Pressure: 30.02in Gusts: 0mph
Raw Report DataKBWI 042054Z 10010KT 7SM FEW050 SCT075 SCT250 31/19 A3002 RMK AO2 SLP163 CB DSNT NE MOV SE T03110189 55001
Traffic Incident Summary
Active as of:
Severity:
Category:
InformationThere was an issue retrieving the traffic information for this location. Please try a different location or try again shortly.
Advertisements
Track Severe Weather on mobile